sensor_id;sensor_type;location;lat;lon;timestamp;P1;durP1;ratioP1;P2;durP2;ratioP2
19043;SDS011;9654;52.302;8.120;2023-01-31T00:00:50;18.03;;;3.67;;
19043;SDS011;9654;52.302;8.120;2023-01-31T00:03:17;19.50;;;5.57;;
19043;SDS011;9654;52.302;8.120;2023-01-31T00:05:44;30.13;;;5.20;;
19043;SDS011;9654;52.302;8.120;2023-01-31T00:08:11;15.87;;;3.30;;
19043;SDS011;9654;52.302;8.120;2023-01-31T00:10:39;24.70;;;4.13;;
19043;SDS011;9654;52.302;8.120;2023-01-31T00:13:06;16.00;;;4.63;;
19043;SDS011;9654;52.302;8.120;2023-01-31T00:15:33;23.07;;;4.40;;
19043;SDS011;9654;52.302;8.120;2023-01-31T00:17:59;24.00;;;4.17;;
19043;SDS011;9654;52.302;8.120;2023-01-31T00:20:26;36.63;;;6.53;;
19043;SDS011;9654;52.302;8.120;2023-01-31T00:22:53;29.50;;;5.30;;
19043;SDS011;9654;52.302;8.120;2023-01-31T00:25:19;25.50;;;4.57;;
19043;SDS011;9654;52.302;8.120;2023-01-31T00:27:47;34.00;;;6.00;;
19043;SDS011;9654;52.302;8.120;2023-01-31T00:30:14;24.20;;;5.20;;
19043;SDS011;9654;52.302;8.120;2023-01-31T00:32:41;38.43;;;5.73;;
19043;SDS011;9654;52.302;8.120;2023-01-31T00:35:08;34.67;;;5.90;;
19043;SDS011;9654;52.302;8.120;2023-01-31T00:37:35;29.50;;;4.67;;
19043;SDS011;9654;52.302;8.120;2023-01-31T00:40:02;31.67;;;7.13;;
19043;SDS011;9654;52.302;8.120;2023-01-31T00:42:29;22.70;;;5.10;;
19043;SDS011;9654;52.302;8.120;2023-01-31T00:44:57;35.60;;;5.47;;
19043;SDS011;9654;52.302;8.120;2023-01-31T00:47:24;29.93;;;4.67;;
19043;SDS011;9654;52.302;8.120;2023-01-31T00:49:50;27.73;;;5.20;;
19043;SDS011;9654;52.302;8.120;2023-01-31T00:52:17;24.30;;;4.70;;
19043;SDS011;9654;52.302;8.120;2023-01-31T00:54:44;37.20;;;6.83;;
19043;SDS011;9654;52.302;8.120;2023-01-31T00:57:11;28.97;;;5.23;;
19043;SDS011;9654;52.302;8.120;2023-01-31T00:59:38;32.60;;;5.70;;
19043;SDS011;9654;52.302;8.120;2023-01-31T01:02:06;25.43;;;4.07;;
19043;SDS011;9654;52.302;8.120;2023-01-31T01:04:33;26.37;;;4.33;;
19043;SDS011;9654;52.302;8.120;2023-01-31T01:06:59;31.30;;;5.00;;
19043;SDS011;9654;52.302;8.120;2023-01-31T01:09:26;37.33;;;6.73;;
19043;SDS011;9654;52.302;8.120;2023-01-31T01:11:53;33.27;;;4.87;;
19043;SDS011;9654;52.302;8.120;2023-01-31T01:14:20;38.73;;;5.13;;
19043;SDS011;9654;52.302;8.120;2023-01-31T01:16:46;25.20;;;4.37;;
19043;SDS011;9654;52.302;8.120;2023-01-31T01:19:15;26.87;;;6.03;;
19043;SDS011;9654;52.302;8.120;2023-01-31T01:21:44;23.90;;;4.53;;
19043;SDS011;9654;52.302;8.120;2023-01-31T01:24:12;34.23;;;4.77;;
19043;SDS011;9654;52.302;8.120;2023-01-31T01:26:40;21.83;;;4.20;;
19043;SDS011;9654;52.302;8.120;2023-01-31T01:29:08;23.23;;;3.70;;
19043;SDS011;9654;52.302;8.120;2023-01-31T01:31:35;22.90;;;4.30;;
19043;SDS011;9654;52.302;8.120;2023-01-31T01:34:03;29.77;;;5.03;;
19043;SDS011;9654;52.302;8.120;2023-01-31T01:36:34;26.77;;;3.80;;
19043;SDS011;9654;52.302;8.120;2023-01-31T01:39:02;29.80;;;4.97;;
19043;SDS011;9654;52.302;8.120;2023-01-31T01:41:30;21.20;;;4.40;;
19043;SDS011;9654;52.302;8.120;2023-01-31T01:43:59;20.07;;;3.80;;
19043;SDS011;9654;52.302;8.120;2023-01-31T01:46:27;21.50;;;3.70;;
19043;SDS011;9654;52.302;8.120;2023-01-31T01:48:55;25.60;;;4.07;;
19043;SDS011;9654;52.302;8.120;2023-01-31T01:51:26;22.63;;;4.23;;
19043;SDS011;9654;52.302;8.120;2023-01-31T01:53:56;21.50;;;4.23;;
19043;SDS011;9654;52.302;8.120;2023-01-31T01:56:29;23.17;;;3.83;;
19043;SDS011;9654;52.302;8.120;2023-01-31T01:58:59;20.63;;;4.00;;
19043;SDS011;9654;52.302;8.120;2023-01-31T02:01:30;33.53;;;4.20;;
19043;SDS011;9654;52.302;8.120;2023-01-31T02:04:00;16.13;;;3.30;;
19043;SDS011;9654;52.302;8.120;2023-01-31T02:06:28;27.50;;;4.40;;
19043;SDS011;9654;52.302;8.120;2023-01-31T02:08:56;37.83;;;4.07;;
19043;SDS011;9654;52.302;8.120;2023-01-31T02:11:25;31.70;;;3.83;;
19043;SDS011;9654;52.302;8.120;2023-01-31T02:13:55;25.03;;;3.10;;
19043;SDS011;9654;52.302;8.120;2023-01-31T02:16:25;24.53;;;3.63;;
19043;SDS011;9654;52.302;8.120;2023-01-31T02:18:52;21.20;;;4.07;;
19043;SDS011;9654;52.302;8.120;2023-01-31T02:27:38;27.33;;;4.57;;
19043;SDS011;9654;52.302;8.120;2023-01-31T02:30:39;22.23;;;4.57;;
19043;SDS011;9654;52.302;8.120;2023-01-31T02:33:40;21.93;;;3.57;;
19043;SDS011;9654;52.302;8.120;2023-01-31T02:36:14;20.27;;;3.57;;
19043;SDS011;9654;52.302;8.120;2023-01-31T02:38:53;27.43;;;4.50;;
19043;SDS011;9654;52.302;8.120;2023-01-31T02:41:28;22.30;;;4.60;;
19043;SDS011;9654;52.302;8.120;2023-01-31T02:44:05;18.17;;;2.90;;
19043;SDS011;9654;52.302;8.120;2023-01-31T02:46:57;27.60;;;4.70;;
19043;SDS011;9654;52.302;8.120;2023-01-31T02:49:31;28.70;;;4.87;;
19043;SDS011;9654;52.302;8.120;2023-01-31T02:52:06;21.20;;;4.13;;
19043;SDS011;9654;52.302;8.120;2023-01-31T02:54:42;20.77;;;3.90;;
19043;SDS011;9654;52.302;8.120;2023-01-31T02:57:31;28.77;;;5.30;;
19043;SDS011;9654;52.302;8.120;2023-01-31T02:59:58;17.90;;;3.30;;
19043;SDS011;9654;52.302;8.120;2023-01-31T03:02:26;20.90;;;4.20;;
19043;SDS011;9654;52.302;8.120;2023-01-31T03:04:54;28.30;;;3.37;;
19043;SDS011;9654;52.302;8.120;2023-01-31T03:07:21;29.53;;;4.60;;
19043;SDS011;9654;52.302;8.120;2023-01-31T03:09:56;22.80;;;3.57;;
19043;SDS011;9654;52.302;8.120;2023-01-31T03:12:35;17.80;;;3.43;;
19043;SDS011;9654;52.302;8.120;2023-01-31T03:15:18;21.03;;;3.77;;
19043;SDS011;9654;52.302;8.120;2023-01-31T03:18:17;25.63;;;3.30;;
19043;SDS011;9654;52.302;8.120;2023-01-31T03:20:49;23.17;;;4.23;;
19043;SDS011;9654;52.302;8.120;2023-01-31T03:23:23;18.20;;;3.50;;
19043;SDS011;9654;52.302;8.120;2023-01-31T03:25:55;20.27;;;3.83;;
19043;SDS011;9654;52.302;8.120;2023-01-31T03:28:26;19.30;;;3.37;;
19043;SDS011;9654;52.302;8.120;2023-01-31T03:30:55;17.00;;;3.80;;
19043;SDS011;9654;52.302;8.120;2023-01-31T03:33:28;20.47;;;4.13;;
19043;SDS011;9654;52.302;8.120;2023-01-31T03:36:01;16.00;;;3.17;;
19043;SDS011;9654;52.302;8.120;2023-01-31T03:38:36;20.33;;;3.77;;
19043;SDS011;9654;52.302;8.120;2023-01-31T03:41:09;14.67;;;3.20;;
19043;SDS011;9654;52.302;8.120;2023-01-31T03:43:44;20.10;;;3.70;;
19043;SDS011;9654;52.302;8.120;2023-01-31T03:46:16;21.43;;;3.33;;
19043;SDS011;9654;52.302;8.120;2023-01-31T03:48:48;23.97;;;3.73;;
19043;SDS011;9654;52.302;8.120;2023-01-31T03:51:20;22.03;;;3.43;;
19043;SDS011;9654;52.302;8.120;2023-01-31T03:53:52;14.63;;;4.63;;
19043;SDS011;9654;52.302;8.120;2023-01-31T03:56:23;28.60;;;7.97;;
19043;SDS011;9654;52.302;8.120;2023-01-31T03:58:56;39.57;;;12.17;;
19043;SDS011;9654;52.302;8.120;2023-01-31T04:01:26;52.07;;;19.00;;
19043;SDS011;9654;52.302;8.120;2023-01-31T04:03:57;48.07;;;17.63;;
19043;SDS011;9654;52.302;8.120;2023-01-31T04:06:28;44.67;;;17.07;;
19043;SDS011;9654;52.302;8.120;2023-01-31T04:08:55;31.07;;;10.37;;
19043;SDS011;9654;52.302;8.120;2023-01-31T04:11:23;36.77;;;12.30;;
19043;SDS011;9654;52.302;8.120;2023-01-31T04:13:51;41.00;;;10.67;;
19043;SDS011;9654;52.302;8.120;2023-01-31T04:16:18;25.17;;;6.53;;
19043;SDS011;9654;52.302;8.120;2023-01-31T04:18:44;50.30;;;20.60;;
19043;SDS011;9654;52.302;8.120;2023-01-31T04:21:12;34.37;;;11.43;;
19043;SDS011;9654;52.302;8.120;2023-01-31T04:23:40;37.10;;;10.73;;
19043;SDS011;9654;52.302;8.120;2023-01-31T04:26:07;30.03;;;8.60;;
19043;SDS011;9654;52.302;8.120;2023-01-31T04:28:34;37.00;;;8.57;;
19043;SDS011;9654;52.302;8.120;2023-01-31T04:31:00;32.97;;;9.87;;
19043;SDS011;9654;52.302;8.120;2023-01-31T04:33:27;69.73;;;26.50;;
19043;SDS011;9654;52.302;8.120;2023-01-31T04:35:54;35.17;;;13.33;;
19043;SDS011;9654;52.302;8.120;2023-01-31T04:38:21;63.17;;;24.60;;
19043;SDS011;9654;52.302;8.120;2023-01-31T04:40:49;64.47;;;21.93;;
19043;SDS011;9654;52.302;8.120;2023-01-31T04:43:16;37.40;;;11.50;;
19043;SDS011;9654;52.302;8.120;2023-01-31T04:45:42;73.97;;;23.33;;
19043;SDS011;9654;52.302;8.120;2023-01-31T04:48:09;55.00;;;17.43;;
19043;SDS011;9654;52.302;8.120;2023-01-31T04:50:37;47.43;;;15.43;;
19043;SDS011;9654;52.302;8.120;2023-01-31T04:53:04;60.20;;;18.00;;
19043;SDS011;9654;52.302;8.120;2023-01-31T04:55:32;42.87;;;12.60;;
19043;SDS011;9654;52.302;8.120;2023-01-31T04:58:00;52.50;;;16.50;;
19043;SDS011;9654;52.302;8.120;2023-01-31T05:00:27;35.50;;;9.63;;
19043;SDS011;9654;52.302;8.120;2023-01-31T05:02:54;44.20;;;17.00;;
19043;SDS011;9654;52.302;8.120;2023-01-31T05:05:21;34.80;;;12.93;;
19043;SDS011;9654;52.302;8.120;2023-01-31T05:07:48;27.50;;;10.47;;
19043;SDS011;9654;52.302;8.120;2023-01-31T05:10:15;30.70;;;10.07;;
19043;SDS011;9654;52.302;8.120;2023-01-31T05:12:42;44.43;;;15.87;;
19043;SDS011;9654;52.302;8.120;2023-01-31T05:15:10;35.07;;;9.77;;
19043;SDS011;9654;52.302;8.120;2023-01-31T05:17:37;38.37;;;10.87;;
19043;SDS011;9654;52.302;8.120;2023-01-31T05:20:04;54.03;;;16.80;;
19043;SDS011;9654;52.302;8.120;2023-01-31T05:22:32;56.53;;;15.17;;
19043;SDS011;9654;52.302;8.120;2023-01-31T05:24:59;38.77;;;12.57;;
19043;SDS011;9654;52.302;8.120;2023-01-31T05:27:25;40.07;;;15.20;;
19043;SDS011;9654;52.302;8.120;2023-01-31T05:29:52;42.53;;;12.80;;
19043;SDS011;9654;52.302;8.120;2023-01-31T05:32:21;41.33;;;11.80;;
19043;SDS011;9654;52.302;8.120;2023-01-31T05:34:47;92.27;;;32.50;;
19043;SDS011;9654;52.302;8.120;2023-01-31T05:37:14;56.27;;;17.63;;
19043;SDS011;9654;52.302;8.120;2023-01-31T05:39:41;34.17;;;10.93;;
19043;SDS011;9654;52.302;8.120;2023-01-31T05:42:08;54.33;;;17.77;;
19043;SDS011;9654;52.302;8.120;2023-01-31T05:44:34;41.93;;;14.00;;
19043;SDS011;9654;52.302;8.120;2023-01-31T05:47:01;48.80;;;17.80;;
19043;SDS011;9654;52.302;8.120;2023-01-31T05:49:29;58.27;;;19.83;;
19043;SDS011;9654;52.302;8.120;2023-01-31T05:51:57;53.67;;;16.90;;
19043;SDS011;9654;52.302;8.120;2023-01-31T05:54:24;54.30;;;17.33;;
19043;SDS011;9654;52.302;8.120;2023-01-31T05:56:51;60.10;;;21.47;;
19043;SDS011;9654;52.302;8.120;2023-01-31T05:59:17;43.27;;;12.83;;
19043;SDS011;9654;52.302;8.120;2023-01-31T06:01:44;45.63;;;15.30;;
19043;SDS011;9654;52.302;8.120;2023-01-31T06:04:11;51.83;;;18.97;;
19043;SDS011;9654;52.302;8.120;2023-01-31T06:06:43;44.40;;;14.80;;
19043;SDS011;9654;52.302;8.120;2023-01-31T06:09:09;38.00;;;10.80;;
19043;SDS011;9654;52.302;8.120;2023-01-31T06:11:36;103.23;;;35.67;;
19043;SDS011;9654;52.302;8.120;2023-01-31T06:14:03;51.73;;;15.20;;
19043;SDS011;9654;52.302;8.120;2023-01-31T06:16:30;65.87;;;20.27;;
19043;SDS011;9654;52.302;8.120;2023-01-31T06:18:57;68.03;;;18.47;;
19043;SDS011;9654;52.302;8.120;2023-01-31T06:21:24;36.20;;;12.20;;
19043;SDS011;9654;52.302;8.120;2023-01-31T06:23:53;69.27;;;18.93;;
19043;SDS011;9654;52.302;8.120;2023-01-31T06:26:21;51.80;;;15.00;;
19043;SDS011;9654;52.302;8.120;2023-01-31T06:28:48;81.03;;;26.67;;
19043;SDS011;9654;52.302;8.120;2023-01-31T06:31:15;33.87;;;11.40;;
19043;SDS011;9654;52.302;8.120;2023-01-31T06:33:42;65.87;;;26.00;;
19043;SDS011;9654;52.302;8.120;2023-01-31T06:36:09;42.67;;;13.83;;
19043;SDS011;9654;52.302;8.120;2023-01-31T06:38:36;37.53;;;15.50;;
19043;SDS011;9654;52.302;8.120;2023-01-31T06:41:04;50.10;;;21.53;;
19043;SDS011;9654;52.302;8.120;2023-01-31T06:43:31;36.07;;;11.97;;
19043;SDS011;9654;52.302;8.120;2023-01-31T06:45:58;30.93;;;7.40;;
19043;SDS011;9654;52.302;8.120;2023-01-31T06:48:24;42.87;;;15.87;;
19043;SDS011;9654;52.302;8.120;2023-01-31T06:50:51;34.77;;;11.50;;
19043;SDS011;9654;52.302;8.120;2023-01-31T06:53:18;36.23;;;11.80;;
19043;SDS011;9654;52.302;8.120;2023-01-31T06:55:45;43.87;;;12.73;;
19043;SDS011;9654;52.302;8.120;2023-01-31T06:58:13;32.77;;;10.53;;
19043;SDS011;9654;52.302;8.120;2023-01-31T07:00:40;33.60;;;10.47;;
19043;SDS011;9654;52.302;8.120;2023-01-31T07:03:07;47.00;;;11.27;;
19043;SDS011;9654;52.302;8.120;2023-01-31T07:05:34;33.50;;;10.93;;
19043;SDS011;9654;52.302;8.120;2023-01-31T07:08:01;23.33;;;7.47;;
19043;SDS011;9654;52.302;8.120;2023-01-31T07:10:28;39.27;;;13.27;;
19043;SDS011;9654;52.302;8.120;2023-01-31T07:12:54;36.03;;;13.77;;
19043;SDS011;9654;52.302;8.120;2023-01-31T07:15:23;39.70;;;10.60;;
19043;SDS011;9654;52.302;8.120;2023-01-31T07:17:49;35.20;;;9.70;;
19043;SDS011;9654;52.302;8.120;2023-01-31T07:20:16;36.03;;;12.20;;
19043;SDS011;9654;52.302;8.120;2023-01-31T07:22:43;37.67;;;12.77;;
19043;SDS011;9654;52.302;8.120;2023-01-31T07:25:10;33.87;;;11.50;;
19043;SDS011;9654;52.302;8.120;2023-01-31T07:27:38;30.67;;;12.70;;
19043;SDS011;9654;52.302;8.120;2023-01-31T07:30:05;41.87;;;12.27;;
19043;SDS011;9654;52.302;8.120;2023-01-31T07:32:34;26.50;;;9.87;;
19043;SDS011;9654;52.302;8.120;2023-01-31T07:35:01;34.20;;;9.77;;
19043;SDS011;9654;52.302;8.120;2023-01-31T07:37:28;34.10;;;10.57;;
19043;SDS011;9654;52.302;8.120;2023-01-31T07:39:54;36.57;;;10.93;;
19043;SDS011;9654;52.302;8.120;2023-01-31T07:42:21;38.47;;;11.87;;
19043;SDS011;9654;52.302;8.120;2023-01-31T07:44:48;32.10;;;11.60;;
19043;SDS011;9654;52.302;8.120;2023-01-31T07:47:15;37.53;;;12.17;;
19043;SDS011;9654;52.302;8.120;2023-01-31T07:49:43;42.90;;;11.40;;
19043;SDS011;9654;52.302;8.120;2023-01-31T07:52:10;27.03;;;11.07;;
19043;SDS011;9654;52.302;8.120;2023-01-31T07:54:37;36.63;;;11.07;;
19043;SDS011;9654;52.302;8.120;2023-01-31T07:57:03;21.37;;;9.87;;
19043;SDS011;9654;52.302;8.120;2023-01-31T07:59:30;35.40;;;10.37;;
19043;SDS011;9654;52.302;8.120;2023-01-31T08:01:57;36.97;;;10.97;;
19043;SDS011;9654;52.302;8.120;2023-01-31T08:04:42;33.17;;;11.00;;
19043;SDS011;9654;52.302;8.120;2023-01-31T08:07:09;30.73;;;10.30;;
19043;SDS011;9654;52.302;8.120;2023-01-31T08:09:37;32.53;;;10.80;;
19043;SDS011;9654;52.302;8.120;2023-01-31T08:12:04;34.57;;;11.13;;
19043;SDS011;9654;52.302;8.120;2023-01-31T08:14:32;35.57;;;11.07;;
19043;SDS011;9654;52.302;8.120;2023-01-31T08:16:58;27.70;;;9.97;;
19043;SDS011;9654;52.302;8.120;2023-01-31T08:19:25;40.13;;;11.23;;
19043;SDS011;9654;52.302;8.120;2023-01-31T08:21:53;32.47;;;10.80;;
19043;SDS011;9654;52.302;8.120;2023-01-31T08:24:20;45.70;;;12.83;;
19043;SDS011;9654;52.302;8.120;2023-01-31T08:26:47;30.20;;;11.20;;
19043;SDS011;9654;52.302;8.120;2023-01-31T08:29:13;32.27;;;12.07;;
19043;SDS011;9654;52.302;8.120;2023-01-31T08:31:40;32.93;;;11.63;;
19043;SDS011;9654;52.302;8.120;2023-01-31T08:34:07;48.13;;;12.60;;
19043;SDS011;9654;52.302;8.120;2023-01-31T08:36:34;34.10;;;11.63;;
19043;SDS011;9654;52.302;8.120;2023-01-31T08:39:03;30.77;;;11.70;;
19043;SDS011;9654;52.302;8.120;2023-01-31T08:41:31;33.07;;;12.40;;
19043;SDS011;9654;52.302;8.120;2023-01-31T08:43:59;33.10;;;12.03;;
19043;SDS011;9654;52.302;8.120;2023-01-31T08:46:28;31.83;;;12.30;;
19043;SDS011;9654;52.302;8.120;2023-01-31T08:48:57;31.63;;;12.07;;
19043;SDS011;9654;52.302;8.120;2023-01-31T08:51:24;35.67;;;13.30;;
19043;SDS011;9654;52.302;8.120;2023-01-31T08:53:51;25.27;;;12.30;;
19043;SDS011;9654;52.302;8.120;2023-01-31T08:56:19;39.70;;;13.10;;
19043;SDS011;9654;52.302;8.120;2023-01-31T08:58:49;30.77;;;12.17;;
19043;SDS011;9654;52.302;8.120;2023-01-31T09:01:17;34.50;;;12.03;;
19043;SDS011;9654;52.302;8.120;2023-01-31T09:03:45;28.37;;;12.63;;
19043;SDS011;9654;52.302;8.120;2023-01-31T09:06:14;35.30;;;13.50;;
19043;SDS011;9654;52.302;8.120;2023-01-31T09:08:42;38.83;;;13.23;;
19043;SDS011;9654;52.302;8.120;2023-01-31T09:11:09;36.47;;;12.53;;
19043;SDS011;9654;52.302;8.120;2023-01-31T09:13:42;24.70;;;11.83;;
19043;SDS011;9654;52.302;8.120;2023-01-31T09:16:10;32.70;;;12.30;;
19043;SDS011;9654;52.302;8.120;2023-01-31T09:18:38;36.60;;;12.43;;
19043;SDS011;9654;52.302;8.120;2023-01-31T09:21:06;36.03;;;12.60;;
19043;SDS011;9654;52.302;8.120;2023-01-31T09:23:34;32.40;;;11.10;;
19043;SDS011;9654;52.302;8.120;2023-01-31T09:26:01;34.63;;;10.80;;
19043;SDS011;9654;52.302;8.120;2023-01-31T09:28:28;35.23;;;12.17;;
19043;SDS011;9654;52.302;8.120;2023-01-31T09:31:00;32.03;;;11.17;;
19043;SDS011;9654;52.302;8.120;2023-01-31T09:33:29;29.77;;;10.13;;
19043;SDS011;9654;52.302;8.120;2023-01-31T09:35:57;31.13;;;11.20;;
19043;SDS011;9654;52.302;8.120;2023-01-31T09:38:25;37.33;;;11.20;;
19043;SDS011;9654;52.302;8.120;2023-01-31T09:40:52;36.30;;;14.40;;
19043;SDS011;9654;52.302;8.120;2023-01-31T09:43:22;27.70;;;10.53;;
19043;SDS011;9654;52.302;8.120;2023-01-31T09:45:50;23.40;;;10.30;;
19043;SDS011;9654;52.302;8.120;2023-01-31T09:48:23;29.73;;;10.37;;
19043;SDS011;9654;52.302;8.120;2023-01-31T09:50:54;29.87;;;11.07;;
19043;SDS011;9654;52.302;8.120;2023-01-31T09:53:24;30.33;;;11.20;;
19043;SDS011;9654;52.302;8.120;2023-01-31T09:55:55;27.63;;;10.30;;
19043;SDS011;9654;52.302;8.120;2023-01-31T09:58:31;32.20;;;10.87;;
19043;SDS011;9654;52.302;8.120;2023-01-31T10:01:08;30.73;;;11.00;;
19043;SDS011;9654;52.302;8.120;2023-01-31T10:03:43;21.13;;;10.73;;
19043;SDS011;9654;52.302;8.120;2023-01-31T10:06:22;34.23;;;11.53;;
19043;SDS011;9654;52.302;8.120;2023-01-31T10:08:55;29.20;;;10.93;;
19043;SDS011;9654;52.302;8.120;2023-01-31T10:11:28;25.93;;;10.37;;
19043;SDS011;9654;52.302;8.120;2023-01-31T10:13:59;37.10;;;12.00;;
19043;SDS011;9654;52.302;8.120;2023-01-31T10:16:30;27.63;;;11.07;;
19043;SDS011;9654;52.302;8.120;2023-01-31T10:19:02;29.07;;;11.10;;
19043;SDS011;9654;52.302;8.120;2023-01-31T10:21:35;34.43;;;11.73;;
19043;SDS011;9654;52.302;8.120;2023-01-31T10:24:08;29.20;;;9.80;;
19043;SDS011;9654;52.302;8.120;2023-01-31T10:26:41;26.43;;;9.47;;
19043;SDS011;9654;52.302;8.120;2023-01-31T10:29:12;30.43;;;10.67;;
19043;SDS011;9654;52.302;8.120;2023-01-31T10:31:43;30.80;;;11.57;;
19043;SDS011;9654;52.302;8.120;2023-01-31T10:34:16;26.50;;;9.90;;
19043;SDS011;9654;52.302;8.120;2023-01-31T10:36:50;36.93;;;12.43;;
19043;SDS011;9654;52.302;8.120;2023-01-31T10:39:22;33.57;;;11.03;;
19043;SDS011;9654;52.302;8.120;2023-01-31T10:41:58;32.53;;;12.10;;
19043;SDS011;9654;52.302;8.120;2023-01-31T10:44:34;28.33;;;11.73;;
19043;SDS011;9654;52.302;8.120;2023-01-31T10:47:09;26.63;;;11.80;;
19043;SDS011;9654;52.302;8.120;2023-01-31T10:49:39;32.23;;;11.67;;
19043;SDS011;9654;52.302;8.120;2023-01-31T10:52:12;29.27;;;11.10;;
19043;SDS011;9654;52.302;8.120;2023-01-31T10:54:53;28.60;;;10.97;;
19043;SDS011;9654;52.302;8.120;2023-01-31T10:57:26;29.80;;;11.40;;
19043;SDS011;9654;52.302;8.120;2023-01-31T10:59:53;29.53;;;11.47;;
19043;SDS011;9654;52.302;8.120;2023-01-31T11:02:21;31.90;;;11.13;;
19043;SDS011;9654;52.302;8.120;2023-01-31T11:04:52;29.67;;;12.87;;
19043;SDS011;9654;52.302;8.120;2023-01-31T11:07:20;26.77;;;12.23;;
19043;SDS011;9654;52.302;8.120;2023-01-31T11:09:48;30.43;;;13.03;;
19043;SDS011;9654;52.302;8.120;2023-01-31T11:12:18;28.50;;;11.37;;
19043;SDS011;9654;52.302;8.120;2023-01-31T11:14:48;41.27;;;12.10;;
19043;SDS011;9654;52.302;8.120;2023-01-31T11:17:32;31.20;;;11.40;;
19043;SDS011;9654;52.302;8.120;2023-01-31T11:20:04;26.70;;;10.90;;
19043;SDS011;9654;52.302;8.120;2023-01-31T11:22:31;32.03;;;11.53;;
19043;SDS011;9654;52.302;8.120;2023-01-31T11:25:01;27.47;;;11.60;;
19043;SDS011;9654;52.302;8.120;2023-01-31T11:27:30;23.33;;;10.63;;
19043;SDS011;9654;52.302;8.120;2023-01-31T11:30:02;32.40;;;12.77;;
19043;SDS011;9654;52.302;8.120;2023-01-31T11:32:31;37.10;;;11.43;;
19043;SDS011;9654;52.302;8.120;2023-01-31T11:35:01;29.70;;;12.23;;
19043;SDS011;9654;52.302;8.120;2023-01-31T11:37:32;30.27;;;12.37;;
19043;SDS011;9654;52.302;8.120;2023-01-31T11:40:00;31.63;;;13.43;;
19043;SDS011;9654;52.302;8.120;2023-01-31T11:42:29;31.13;;;12.20;;
19043;SDS011;9654;52.302;8.120;2023-01-31T11:44:56;36.13;;;12.30;;
19043;SDS011;9654;52.302;8.120;2023-01-31T11:47:27;29.03;;;12.00;;
19043;SDS011;9654;52.302;8.120;2023-01-31T11:49:58;30.27;;;12.23;;
19043;SDS011;9654;52.302;8.120;2023-01-31T11:52:29;27.87;;;10.90;;
19043;SDS011;9654;52.302;8.120;2023-01-31T11:54:58;19.87;;;10.57;;
19043;SDS011;9654;52.302;8.120;2023-01-31T11:57:27;28.07;;;10.70;;
19043;SDS011;9654;52.302;8.120;2023-01-31T11:59:57;30.17;;;10.40;;
19043;SDS011;9654;52.302;8.120;2023-01-31T12:02:29;28.50;;;10.90;;
19043;SDS011;9654;52.302;8.120;2023-01-31T12:05:00;29.70;;;12.13;;
19043;SDS011;9654;52.302;8.120;2023-01-31T12:07:41;26.97;;;10.40;;
19043;SDS011;9654;52.302;8.120;2023-01-31T12:10:26;27.70;;;11.23;;
19043;SDS011;9654;52.302;8.120;2023-01-31T12:12:59;25.93;;;10.90;;
19043;SDS011;9654;52.302;8.120;2023-01-31T12:15:27;29.27;;;11.43;;
19043;SDS011;9654;52.302;8.120;2023-01-31T12:17:55;32.60;;;11.07;;
19043;SDS011;9654;52.302;8.120;2023-01-31T12:20:31;32.33;;;12.03;;
19043;SDS011;9654;52.302;8.120;2023-01-31T12:23:10;30.63;;;13.13;;
19043;SDS011;9654;52.302;8.120;2023-01-31T12:25:55;31.80;;;11.80;;
19043;SDS011;9654;52.302;8.120;2023-01-31T12:28:35;25.73;;;11.73;;
19043;SDS011;9654;52.302;8.120;2023-01-31T12:31:21;21.93;;;10.90;;
19043;SDS011;9654;52.302;8.120;2023-01-31T12:34:06;31.73;;;11.83;;
19043;SDS011;9654;52.302;8.120;2023-01-31T12:36:48;22.03;;;13.37;;
19043;SDS011;9654;52.302;8.120;2023-01-31T12:39:34;37.63;;;13.57;;
19043;SDS011;9654;52.302;8.120;2023-01-31T12:42:20;27.90;;;12.37;;
19043;SDS011;9654;52.302;8.120;2023-01-31T12:45:00;33.90;;;13.10;;
19043;SDS011;9654;52.302;8.120;2023-01-31T12:47:41;35.63;;;13.27;;
19043;SDS011;9654;52.302;8.120;2023-01-31T12:50:22;29.20;;;13.47;;
19043;SDS011;9654;52.302;8.120;2023-01-31T12:52:57;33.37;;;14.20;;
19043;SDS011;9654;52.302;8.120;2023-01-31T12:55:43;23.37;;;12.07;;
19043;SDS011;9654;52.302;8.120;2023-01-31T12:58:22;30.17;;;14.37;;
19043;SDS011;9654;52.302;8.120;2023-01-31T13:01:04;31.13;;;13.73;;
19043;SDS011;9654;52.302;8.120;2023-01-31T13:03:40;25.67;;;12.97;;
19043;SDS011;9654;52.302;8.120;2023-01-31T13:06:25;29.73;;;13.10;;
19043;SDS011;9654;52.302;8.120;2023-01-31T13:08:57;27.23;;;13.30;;
19043;SDS011;9654;52.302;8.120;2023-01-31T13:11:29;26.70;;;13.67;;
19043;SDS011;9654;52.302;8.120;2023-01-31T13:14:03;27.77;;;14.07;;
19043;SDS011;9654;52.302;8.120;2023-01-31T13:16:36;25.77;;;13.37;;
19043;SDS011;9654;52.302;8.120;2023-01-31T13:19:09;29.50;;;13.90;;
19043;SDS011;9654;52.302;8.120;2023-01-31T13:21:42;28.40;;;12.77;;
19043;SDS011;9654;52.302;8.120;2023-01-31T13:24:14;36.03;;;13.93;;
19043;SDS011;9654;52.302;8.120;2023-01-31T13:26:47;26.23;;;13.40;;
19043;SDS011;9654;52.302;8.120;2023-01-31T13:29:17;23.47;;;13.70;;
19043;SDS011;9654;52.302;8.120;2023-01-31T13:31:50;32.70;;;13.07;;
19043;SDS011;9654;52.302;8.120;2023-01-31T13:34:23;29.90;;;13.57;;
19043;SDS011;9654;52.302;8.120;2023-01-31T13:36:55;30.80;;;13.27;;
19043;SDS011;9654;52.302;8.120;2023-01-31T13:39:26;23.93;;;12.77;;
19043;SDS011;9654;52.302;8.120;2023-01-31T13:41:57;22.97;;;12.47;;
19043;SDS011;9654;52.302;8.120;2023-01-31T13:44:24;24.57;;;12.57;;
19043;SDS011;9654;52.302;8.120;2023-01-31T13:46:51;25.90;;;13.07;;
19043;SDS011;9654;52.302;8.120;2023-01-31T13:49:23;25.27;;;13.37;;
19043;SDS011;9654;52.302;8.120;2023-01-31T13:51:54;25.43;;;13.87;;
19043;SDS011;9654;52.302;8.120;2023-01-31T13:54:23;24.20;;;12.80;;
19043;SDS011;9654;52.302;8.120;2023-01-31T13:56:56;30.40;;;12.83;;
19043;SDS011;9654;52.302;8.120;2023-01-31T13:59:27;26.60;;;14.27;;
19043;SDS011;9654;52.302;8.120;2023-01-31T14:01:57;24.03;;;14.27;;
19043;SDS011;9654;52.302;8.120;2023-01-31T14:04:27;27.13;;;13.43;;
19043;SDS011;9654;52.302;8.120;2023-01-31T14:06:56;26.20;;;14.00;;
19043;SDS011;9654;52.302;8.120;2023-01-31T14:13:21;25.20;;;12.43;;
19043;SDS011;9654;52.302;8.120;2023-01-31T14:16:04;24.60;;;13.37;;
19043;SDS011;9654;52.302;8.120;2023-01-31T14:22:21;28.37;;;13.20;;
19043;SDS011;9654;52.302;8.120;2023-01-31T14:27:26;24.47;;;14.57;;
19043;SDS011;9654;52.302;8.120;2023-01-31T14:29:56;24.93;;;13.30;;
19043;SDS011;9654;52.302;8.120;2023-01-31T14:32:34;22.33;;;12.43;;
19043;SDS011;9654;52.302;8.120;2023-01-31T14:35:06;22.07;;;12.07;;
19043;SDS011;9654;52.302;8.120;2023-01-31T14:37:49;22.27;;;12.67;;
19043;SDS011;9654;52.302;8.120;2023-01-31T14:40:23;21.07;;;12.43;;
19043;SDS011;9654;52.302;8.120;2023-01-31T14:45:54;21.20;;;11.93;;
19043;SDS011;9654;52.302;8.120;2023-01-31T14:48:39;24.30;;;12.10;;
19043;SDS011;9654;52.302;8.120;2023-01-31T14:51:28;23.03;;;11.30;;
19043;SDS011;9654;52.302;8.120;2023-01-31T14:54:05;23.10;;;11.00;;
19043;SDS011;9654;52.302;8.120;2023-01-31T14:57:07;22.57;;;10.30;;
19043;SDS011;9654;52.302;8.120;2023-01-31T14:59:40;23.03;;;11.17;;
19043;SDS011;9654;52.302;8.120;2023-01-31T15:02:20;22.53;;;10.37;;
19043;SDS011;9654;52.302;8.120;2023-01-31T15:05:01;16.13;;;10.07;;
19043;SDS011;9654;52.302;8.120;2023-01-31T15:07:31;21.47;;;10.03;;
19043;SDS011;9654;52.302;8.120;2023-01-31T15:09:58;16.93;;;10.30;;
19043;SDS011;9654;52.302;8.120;2023-01-31T15:15:18;21.17;;;10.37;;
19043;SDS011;9654;52.302;8.120;2023-01-31T15:17:51;23.47;;;13.60;;
19043;SDS011;9654;52.302;8.120;2023-01-31T15:20:22;20.70;;;9.43;;